METAR Data

Data at: 1835 UTC 21 Nov 2018

METAR for:CYQI (Yarmouth Arpt, NS, CN)
Text:CYQI 211800Z 27015G23KT 15SM BKN038 03/M03 A2983 RMK SC7 SLP103
Temperature: 3.0°C ( 37°F)
Dewpoint: -3.0°C ( 27°F) [RH = 65%]
Pressure (altimeter):29.83 inches Hg (1010.2 mb) [Sea level pressure: 1010.3 mb]
Winds:from the W (270 degrees) at 17 MPH (15 knots; 7.7 m/s) gusting to 26 MPH (23 knots; 11.8 m/s)
Visibility: 15 sm ( 24 km)
Ceiling:3800 feet AGL
Clouds: broken clouds at 3800 feet AGL